sensor_id;sensor_type;location;lat;lon;timestamp;temperature;humidity
9425;DHT22;17139;52.140;11.636;2022-10-16T00:00:35;14.50;64.90
9425;DHT22;17139;52.140;11.636;2022-10-16T00:03:04;14.50;64.90
9425;DHT22;17139;52.140;11.636;2022-10-16T00:05:32;14.40;64.80
9425;DHT22;17139;52.140;11.636;2022-10-16T00:07:59;15.00;65.20
9425;DHT22;17139;52.140;11.636;2022-10-16T00:10:28;14.80;64.20
9425;DHT22;17139;52.140;11.636;2022-10-16T00:12:55;14.60;64.50
9425;DHT22;17139;52.140;11.636;2022-10-16T00:15:23;14.50;64.90
9425;DHT22;17139;52.140;11.636;2022-10-16T00:17:50;14.40;64.80
9425;DHT22;17139;52.140;11.636;2022-10-16T00:20:17;14.30;64.70
9425;DHT22;17139;52.140;11.636;2022-10-16T00:22:44;14.30;64.90
9425;DHT22;17139;52.140;11.636;2022-10-16T00:25:11;14.30;65.00
9425;DHT22;17139;52.140;11.636;2022-10-16T00:27:38;14.30;65.00
9425;DHT22;17139;52.140;11.636;2022-10-16T00:30:06;14.20;64.90
9425;DHT22;17139;52.140;11.636;2022-10-16T00:32:36;14.80;64.80
9425;DHT22;17139;52.140;11.636;2022-10-16T00:35:03;14.70;64.20
9425;DHT22;17139;52.140;11.636;2022-10-16T00:37:30;14.50;64.50
9425;DHT22;17139;52.140;11.636;2022-10-16T00:39:57;14.40;64.80
9425;DHT22;17139;52.140;11.636;2022-10-16T00:42:24;14.30;64.70
9425;DHT22;17139;52.140;11.636;2022-10-16T00:44:53;14.30;64.70
9425;DHT22;17139;52.140;11.636;2022-10-16T00:47:25;14.30;64.70
9425;DHT22;17139;52.140;11.636;2022-10-16T00:49:58;14.20;64.70
9425;DHT22;17139;52.140;11.636;2022-10-16T00:52:26;14.20;64.80
9425;DHT22;17139;52.140;11.636;2022-10-16T00:54:54;14.20;64.90
9425;DHT22;17139;52.140;11.636;2022-10-16T00:57:22;14.10;64.70
9425;DHT22;17139;52.140;11.636;2022-10-16T00:59:50;14.10;64.80
9425;DHT22;17139;52.140;11.636;2022-10-16T01:02:17;14.00;64.80
9425;DHT22;17139;52.140;11.636;2022-10-16T01:04:46;14.00;64.80
9425;DHT22;17139;52.140;11.636;2022-10-16T01:07:20;14.60;64.70
9425;DHT22;17139;52.140;11.636;2022-10-16T01:10:07;14.50;64.20
9425;DHT22;17139;52.140;11.636;2022-10-16T01:12:40;14.30;64.60
9425;DHT22;17139;52.140;11.636;2022-10-16T01:15:13;14.20;64.60
9425;DHT22;17139;52.140;11.636;2022-10-16T01:17:49;14.10;64.80
9425;DHT22;17139;52.140;11.636;2022-10-16T01:20:26;14.10;64.90
9425;DHT22;17139;52.140;11.636;2022-10-16T01:23:19;14.10;64.90
9425;DHT22;17139;52.140;11.636;2022-10-16T01:25:59;14.10;64.90
9425;DHT22;17139;52.140;11.636;2022-10-16T01:28:36;14.00;64.90
9425;DHT22;17139;52.140;11.636;2022-10-16T01:31:05;14.20;65.10
9425;DHT22;17139;52.140;11.636;2022-10-16T01:33:37;14.20;64.60
9425;DHT22;17139;52.140;11.636;2022-10-16T01:36:10;14.20;64.60
9425;DHT22;17139;52.140;11.636;2022-10-16T01:38:40;14.20;64.60
9425;DHT22;17139;52.140;11.636;2022-10-16T01:41:10;14.20;65.30
9425;DHT22;17139;52.140;11.636;2022-10-16T01:43:42;14.20;64.60
9425;DHT22;17139;52.140;11.636;2022-10-16T01:46:10;14.20;64.60
9425;DHT22;17139;52.140;11.636;2022-10-16T01:48:39;14.20;64.60
9425;DHT22;17139;52.140;11.636;2022-10-16T01:51:12;14.10;64.50
9425;DHT22;17139;52.140;11.636;2022-10-16T01:53:41;14.10;64.50
9425;DHT22;17139;52.140;11.636;2022-10-16T01:56:11;14.10;64.60
9425;DHT22;17139;52.140;11.636;2022-10-16T01:58:44;14.10;64.60
9425;DHT22;17139;52.140;11.636;2022-10-16T02:01:14;14.10;64.50
9425;DHT22;17139;52.140;11.636;2022-10-16T02:03:43;14.20;64.60
9425;DHT22;17139;52.140;11.636;2022-10-16T02:06:12;14.20;64.60
9425;DHT22;17139;52.140;11.636;2022-10-16T02:08:39;14.20;64.60
9425;DHT22;17139;52.140;11.636;2022-10-16T02:11:10;14.10;65.20
9425;DHT22;17139;52.140;11.636;2022-10-16T02:13:39;14.10;64.50
9425;DHT22;17139;52.140;11.636;2022-10-16T02:16:12;14.10;64.50
9425;DHT22;17139;52.140;11.636;2022-10-16T02:18:40;14.10;64.50
9425;DHT22;17139;52.140;11.636;2022-10-16T02:21:13;14.10;64.50
9425;DHT22;17139;52.140;11.636;2022-10-16T02:23:49;14.10;64.50
9425;DHT22;17139;52.140;11.636;2022-10-16T02:26:30;14.00;64.40
9425;DHT22;17139;52.140;11.636;2022-10-16T02:29:04;14.00;64.50
9425;DHT22;17139;52.140;11.636;2022-10-16T02:31:38;14.00;64.70
9425;DHT22;17139;52.140;11.636;2022-10-16T02:34:08;14.50;64.30
9425;DHT22;17139;52.140;11.636;2022-10-16T02:36:38;14.30;63.80
9425;DHT22;17139;52.140;11.636;2022-10-16T02:39:06;14.20;64.10
9425;DHT22;17139;52.140;11.636;2022-10-16T02:41:33;14.20;64.60
9425;DHT22;17139;52.140;11.636;2022-10-16T02:44:00;14.10;64.50
9425;DHT22;17139;52.140;11.636;2022-10-16T02:46:27;14.00;64.40
9425;DHT22;17139;52.140;11.636;2022-10-16T02:48:55;14.00;64.50
9425;DHT22;17139;52.140;11.636;2022-10-16T02:51:22;13.90;64.50
9425;DHT22;17139;52.140;11.636;2022-10-16T02:53:49;13.90;64.60
9425;DHT22;17139;52.140;11.636;2022-10-16T02:56:16;13.90;64.60
9425;DHT22;17139;52.140;11.636;2022-10-16T02:58:43;13.90;64.70
9425;DHT22;17139;52.140;11.636;2022-10-16T03:01:10;13.90;64.60
9425;DHT22;17139;52.140;11.636;2022-10-16T03:03:38;13.90;64.50
9425;DHT22;17139;52.140;11.636;2022-10-16T03:06:06;13.90;64.40
9425;DHT22;17139;52.140;11.636;2022-10-16T03:08:33;14.00;64.40
9425;DHT22;17139;52.140;11.636;2022-10-16T03:11:00;14.20;64.50
9425;DHT22;17139;52.140;11.636;2022-10-16T03:13:27;14.30;64.00
9425;DHT22;17139;52.140;11.636;2022-10-16T03:15:54;14.20;64.10
9425;DHT22;17139;52.140;11.636;2022-10-16T03:18:21;14.10;64.10
9425;DHT22;17139;52.140;11.636;2022-10-16T03:20:48;14.10;64.30
9425;DHT22;17139;52.140;11.636;2022-10-16T03:23:16;14.10;64.40
9425;DHT22;17139;52.140;11.636;2022-10-16T03:25:43;14.10;64.40
9425;DHT22;17139;52.140;11.636;2022-10-16T03:28:10;14.10;64.40
9425;DHT22;17139;52.140;11.636;2022-10-16T03:30:37;14.10;65.20
9425;DHT22;17139;52.140;11.636;2022-10-16T03:33:05;14.10;64.50
9425;DHT22;17139;52.140;11.636;2022-10-16T03:35:32;14.00;64.40
9425;DHT22;17139;52.140;11.636;2022-10-16T03:37:59;14.50;64.20
9425;DHT22;17139;52.140;11.636;2022-10-16T03:40:27;14.40;63.60
9425;DHT22;17139;52.140;11.636;2022-10-16T03:42:54;14.30;63.80
9425;DHT22;17139;52.140;11.636;2022-10-16T03:45:23;14.20;64.00
9425;DHT22;17139;52.140;11.636;2022-10-16T03:47:50;14.10;64.00
9425;DHT22;17139;52.140;11.636;2022-10-16T03:50:17;14.10;64.30
9425;DHT22;17139;52.140;11.636;2022-10-16T03:52:44;14.10;64.50
9425;DHT22;17139;52.140;11.636;2022-10-16T03:55:11;14.10;65.20
9425;DHT22;17139;52.140;11.636;2022-10-16T03:57:39;14.00;64.40
9425;DHT22;17139;52.140;11.636;2022-10-16T04:00:07;14.10;64.50
9425;DHT22;17139;52.140;11.636;2022-10-16T04:02:34;14.10;64.50
9425;DHT22;17139;52.140;11.636;2022-10-16T04:05:01;14.00;64.40
9425;DHT22;17139;52.140;11.636;2022-10-16T04:07:28;14.00;64.40
9425;DHT22;17139;52.140;11.636;2022-10-16T04:09:55;14.00;64.40
9425;DHT22;17139;52.140;11.636;2022-10-16T04:12:24;14.00;64.40
9425;DHT22;17139;52.140;11.636;2022-10-16T04:14:52;14.00;64.40
9425;DHT22;17139;52.140;11.636;2022-10-16T04:17:19;14.00;64.40
9425;DHT22;17139;52.140;11.636;2022-10-16T04:19:46;14.00;64.40
9425;DHT22;17139;52.140;11.636;2022-10-16T04:22:13;13.90;64.30
9425;DHT22;17139;52.140;11.636;2022-10-16T04:24:40;13.90;64.30
9425;DHT22;17139;52.140;11.636;2022-10-16T04:27:07;13.90;64.30
9425;DHT22;17139;52.140;11.636;2022-10-16T04:29:34;13.80;64.30
9425;DHT22;17139;52.140;11.636;2022-10-16T04:32:02;13.80;64.50
9425;DHT22;17139;52.140;11.636;2022-10-16T04:34:29;13.80;64.60
9425;DHT22;17139;52.140;11.636;2022-10-16T04:36:56;13.80;64.60
9425;DHT22;17139;52.140;11.636;2022-10-16T04:39:23;13.80;64.70
9425;DHT22;17139;52.140;11.636;2022-10-16T04:41:50;13.70;64.60
9425;DHT22;17139;52.140;11.636;2022-10-16T04:44:17;13.70;64.70
9425;DHT22;17139;52.140;11.636;2022-10-16T04:46:44;13.70;65.40
9425;DHT22;17139;52.140;11.636;2022-10-16T04:49:12;14.00;64.60
9425;DHT22;17139;52.140;11.636;2022-10-16T04:51:39;14.00;64.40
9425;DHT22;17139;52.140;11.636;2022-10-16T04:54:06;13.90;64.30
9425;DHT22;17139;52.140;11.636;2022-10-16T04:56:33;13.90;64.30
9425;DHT22;17139;52.140;11.636;2022-10-16T04:59:05;13.80;64.40
9425;DHT22;17139;52.140;11.636;2022-10-16T05:01:32;13.80;64.50
9425;DHT22;17139;52.140;11.636;2022-10-16T05:03:59;13.70;64.50
9425;DHT22;17139;52.140;11.636;2022-10-16T05:06:27;13.70;64.60
9425;DHT22;17139;52.140;11.636;2022-10-16T05:08:54;13.60;64.60
9425;DHT22;17139;52.140;11.636;2022-10-16T05:11:21;13.50;64.70
9425;DHT22;17139;52.140;11.636;2022-10-16T05:13:48;13.50;64.90
9425;DHT22;17139;52.140;11.636;2022-10-16T05:16:15;13.90;64.70
9425;DHT22;17139;52.140;11.636;2022-10-16T05:18:42;13.80;64.20
9425;DHT22;17139;52.140;11.636;2022-10-16T05:21:09;13.60;64.30
9425;DHT22;17139;52.140;11.636;2022-10-16T05:23:38;13.50;64.60
9425;DHT22;17139;52.140;11.636;2022-10-16T05:26:05;13.40;64.90
9425;DHT22;17139;52.140;11.636;2022-10-16T05:28:31;13.30;65.00
9425;DHT22;17139;52.140;11.636;2022-10-16T05:30:58;13.30;65.10
9425;DHT22;17139;52.140;11.636;2022-10-16T05:33:26;13.20;65.10
9425;DHT22;17139;52.140;11.636;2022-10-16T05:35:52;13.20;65.10
9425;DHT22;17139;52.140;11.636;2022-10-16T05:38:19;13.20;65.00
9425;DHT22;17139;52.140;11.636;2022-10-16T05:40:52;13.20;65.00
9425;DHT22;17139;52.140;11.636;2022-10-16T05:43:19;13.30;65.30
9425;DHT22;17139;52.140;11.636;2022-10-16T05:45:53;13.30;65.00
9425;DHT22;17139;52.140;11.636;2022-10-16T05:48:20;13.30;65.70
9425;DHT22;17139;52.140;11.636;2022-10-16T05:50:47;14.00;64.20
9425;DHT22;17139;52.140;11.636;2022-10-16T05:53:15;13.90;63.80
9425;DHT22;17139;52.140;11.636;2022-10-16T05:55:41;13.60;64.00
9425;DHT22;17139;52.140;11.636;2022-10-16T05:58:10;13.40;64.50
9425;DHT22;17139;52.140;11.636;2022-10-16T06:00:37;13.30;65.60
9425;DHT22;17139;52.140;11.636;2022-10-16T06:03:03;13.30;65.10
9425;DHT22;17139;52.140;11.636;2022-10-16T06:05:32;13.30;65.20
9425;DHT22;17139;52.140;11.636;2022-10-16T06:07:59;13.30;65.90
9425;DHT22;17139;52.140;11.636;2022-10-16T06:10:26;13.30;65.10
9425;DHT22;17139;52.140;11.636;2022-10-16T06:12:54;13.40;65.10
9425;DHT22;17139;52.140;11.636;2022-10-16T06:15:22;13.40;65.10
9425;DHT22;17139;52.140;11.636;2022-10-16T06:17:49;13.50;65.10
9425;DHT22;17139;52.140;11.636;2022-10-16T06:20:16;13.60;65.20
9425;DHT22;17139;52.140;11.636;2022-10-16T06:22:43;13.70;64.80
9425;DHT22;17139;52.140;11.636;2022-10-16T06:25:10;13.90;65.10
9425;DHT22;17139;52.140;11.636;2022-10-16T06:27:39;13.90;64.40
9425;DHT22;17139;52.140;11.636;2022-10-16T06:30:07;13.90;64.60
9425;DHT22;17139;52.140;11.636;2022-10-16T06:32:36;14.60;64.40
9425;DHT22;17139;52.140;11.636;2022-10-16T06:35:03;14.40;63.80
9425;DHT22;17139;52.140;11.636;2022-10-16T06:37:30;14.20;64.20
9425;DHT22;17139;52.140;11.636;2022-10-16T06:39:57;14.20;64.60
9425;DHT22;17139;52.140;11.636;2022-10-16T06:42:25;14.10;64.50
9425;DHT22;17139;52.140;11.636;2022-10-16T06:44:52;14.00;64.50
9425;DHT22;17139;52.140;11.636;2022-10-16T06:47:19;14.00;64.80
9425;DHT22;17139;52.140;11.636;2022-10-16T06:49:47;14.00;64.90
9425;DHT22;17139;52.140;11.636;2022-10-16T06:52:14;14.10;65.00
9425;DHT22;17139;52.140;11.636;2022-10-16T06:54:41;14.10;64.90
9425;DHT22;17139;52.140;11.636;2022-10-16T06:57:08;14.10;64.90
9425;DHT22;17139;52.140;11.636;2022-10-16T06:59:35;14.20;64.90
9425;DHT22;17139;52.140;11.636;2022-10-16T07:02:02;14.20;64.70
9425;DHT22;17139;52.140;11.636;2022-10-16T07:04:29;15.10;64.40
9425;DHT22;17139;52.140;11.636;2022-10-16T07:06:57;15.10;64.10
9425;DHT22;17139;52.140;11.636;2022-10-16T07:09:24;14.90;64.80
9425;DHT22;17139;52.140;11.636;2022-10-16T07:11:51;15.00;64.40
9425;DHT22;17139;52.140;11.636;2022-10-16T07:14:21;14.90;64.10
9425;DHT22;17139;52.140;11.636;2022-10-16T07:16:48;15.60;63.50
9425;DHT22;17139;52.140;11.636;2022-10-16T07:19:15;15.30;63.50
9425;DHT22;17139;52.140;11.636;2022-10-16T07:21:43;15.00;64.10
9425;DHT22;17139;52.140;11.636;2022-10-16T07:24:14;14.80;64.50
9425;DHT22;17139;52.140;11.636;2022-10-16T07:26:42;15.00;64.90
9425;DHT22;17139;52.140;11.636;2022-10-16T07:29:13;14.90;64.60
9425;DHT22;17139;52.140;11.636;2022-10-16T07:31:40;14.80;64.90
9425;DHT22;17139;52.140;11.636;2022-10-16T07:34:08;14.70;65.10
9425;DHT22;17139;52.140;11.636;2022-10-16T07:36:35;15.20;65.00
9425;DHT22;17139;52.140;11.636;2022-10-16T07:39:02;15.20;64.50
9425;DHT22;17139;52.140;11.636;2022-10-16T07:41:31;15.00;64.60
9425;DHT22;17139;52.140;11.636;2022-10-16T07:44:02;14.90;64.70
9425;DHT22;17139;52.140;11.636;2022-10-16T07:46:29;15.30;64.60
9425;DHT22;17139;52.140;11.636;2022-10-16T07:48:57;15.10;64.30
9425;DHT22;17139;52.140;11.636;2022-10-16T07:51:25;14.90;64.70
9425;DHT22;17139;52.140;11.636;2022-10-16T07:53:52;14.80;65.10
9425;DHT22;17139;52.140;11.636;2022-10-16T07:56:20;14.70;65.10
9425;DHT22;17139;52.140;11.636;2022-10-16T07:58:50;14.60;65.10
9425;DHT22;17139;52.140;11.636;2022-10-16T08:01:17;14.50;65.10
9425;DHT22;17139;52.140;11.636;2022-10-16T08:03:46;14.40;65.30
9425;DHT22;17139;52.140;11.636;2022-10-16T08:06:14;14.30;65.40
9425;DHT22;17139;52.140;11.636;2022-10-16T08:08:41;14.20;65.60
9425;DHT22;17139;52.140;11.636;2022-10-16T08:11:08;14.20;65.70
9425;DHT22;17139;52.140;11.636;2022-10-16T08:13:35;14.10;65.70
9425;DHT22;17139;52.140;11.636;2022-10-16T08:16:04;14.10;65.80
9425;DHT22;17139;52.140;11.636;2022-10-16T08:18:33;14.10;65.80
9425;DHT22;17139;52.140;11.636;2022-10-16T08:21:02;14.00;65.80
9425;DHT22;17139;52.140;11.636;2022-10-16T08:23:29;14.00;65.80
9425;DHT22;17139;52.140;11.636;2022-10-16T08:26:02;14.40;66.00
9425;DHT22;17139;52.140;11.636;2022-10-16T08:28:30;14.40;65.30
9425;DHT22;17139;52.140;11.636;2022-10-16T08:31:06;14.30;65.40
9425;DHT22;17139;52.140;11.636;2022-10-16T08:33:33;14.30;65.60
9425;DHT22;17139;52.140;11.636;2022-10-16T08:36:01;14.30;65.60
9425;DHT22;17139;52.140;11.636;2022-10-16T08:38:29;14.40;65.50
9425;DHT22;17139;52.140;11.636;2022-10-16T08:41:10;14.50;65.40
9425;DHT22;17139;52.140;11.636;2022-10-16T08:44:00;14.70;65.40
9425;DHT22;17139;52.140;11.636;2022-10-16T08:46:42;14.70;65.10
9425;DHT22;17139;52.140;11.636;2022-10-16T08:49:13;15.20;65.00
9425;DHT22;17139;52.140;11.636;2022-10-16T08:51:41;15.10;64.60
9425;DHT22;17139;52.140;11.636;2022-10-16T08:54:21;15.00;64.70
9425;DHT22;17139;52.140;11.636;2022-10-16T08:56:49;15.10;64.80
9425;DHT22;17139;52.140;11.636;2022-10-16T08:59:17;15.10;64.90
9425;DHT22;17139;52.140;11.636;2022-10-16T09:01:49;15.10;64.80
9425;DHT22;17139;52.140;11.636;2022-10-16T09:04:44;15.20;64.80
9425;DHT22;17139;52.140;11.636;2022-10-16T09:07:19;15.20;64.70
9425;DHT22;17139;52.140;11.636;2022-10-16T09:10:03;15.10;64.90
9425;DHT22;17139;52.140;11.636;2022-10-16T09:12:37;15.20;65.60
9425;DHT22;17139;52.140;11.636;2022-10-16T09:15:19;16.00;63.40
9425;DHT22;17139;52.140;11.636;2022-10-16T09:17:55;15.90;63.50
9425;DHT22;17139;52.140;11.636;2022-10-16T09:20:33;16.30;63.10
9425;DHT22;17139;52.140;11.636;2022-10-16T09:23:14;16.00;63.30
9425;DHT22;17139;52.140;11.636;2022-10-16T09:25:48;15.80;63.90
9425;DHT22;17139;52.140;11.636;2022-10-16T09:28:16;15.80;64.20
9425;DHT22;17139;52.140;11.636;2022-10-16T09:30:43;15.70;64.20
9425;DHT22;17139;52.140;11.636;2022-10-16T09:33:13;15.70;64.40
9425;DHT22;17139;52.140;11.636;2022-10-16T09:35:42;15.80;64.50
9425;DHT22;17139;52.140;11.636;2022-10-16T09:38:22;15.80;64.40
9425;DHT22;17139;52.140;11.636;2022-10-16T09:40:49;16.00;64.00
9425;DHT22;17139;52.140;11.636;2022-10-16T09:43:27;16.00;63.80
9425;DHT22;17139;52.140;11.636;2022-10-16T09:46:00;16.10;64.00
9425;DHT22;17139;52.140;11.636;2022-10-16T09:48:33;16.10;64.00
9425;DHT22;17139;52.140;11.636;2022-10-16T09:51:03;16.20;64.10
9425;DHT22;17139;52.140;11.636;2022-10-16T09:53:40;16.30;64.00
9425;DHT22;17139;52.140;11.636;2022-10-16T09:56:09;16.50;64.00
9425;DHT22;17139;52.140;11.636;2022-10-16T09:58:42;16.60;63.80
9425;DHT22;17139;52.140;11.636;2022-10-16T10:01:13;16.70;63.70
9425;DHT22;17139;52.140;11.636;2022-10-16T10:03:43;16.90;63.50
9425;DHT22;17139;52.140;11.636;2022-10-16T10:06:21;17.00;63.30
9425;DHT22;17139;52.140;11.636;2022-10-16T10:08:56;17.50;62.10
9425;DHT22;17139;52.140;11.636;2022-10-16T10:11:38;17.60;62.50
9425;DHT22;17139;52.140;11.636;2022-10-16T10:14:06;17.70;61.90
9425;DHT22;17139;52.140;11.636;2022-10-16T10:16:33;17.60;62.30
9425;DHT22;17139;52.140;11.636;2022-10-16T10:19:01;17.60;62.70
9425;DHT22;17139;52.140;11.636;2022-10-16T10:21:28;17.60;62.90
9425;DHT22;17139;52.140;11.636;2022-10-16T10:23:56;17.60;62.90
9425;DHT22;17139;52.140;11.636;2022-10-16T10:26:25;17.60;62.90
9425;DHT22;17139;52.140;11.636;2022-10-16T10:29:01;17.90;61.40
9425;DHT22;17139;52.140;11.636;2022-10-16T10:31:34;17.80;62.00
9425;DHT22;17139;52.140;11.636;2022-10-16T10:34:34;18.00;61.30
9425;DHT22;17139;52.140;11.636;2022-10-16T10:37:06;17.70;61.90
9425;DHT22;17139;52.140;11.636;2022-10-16T10:39:40;17.60;62.60
9425;DHT22;17139;52.140;11.636;2022-10-16T10:42:19;17.40;62.70
9425;DHT22;17139;52.140;11.636;2022-10-16T10:44:59;17.40;63.20
9425;DHT22;17139;52.140;11.636;2022-10-16T10:47:39;17.30;63.30
9425;DHT22;17139;52.140;11.636;2022-10-16T10:50:16;17.20;63.50
9425;DHT22;17139;52.140;11.636;2022-10-16T10:52:57;17.10;63.40
9425;DHT22;17139;52.140;11.636;2022-10-16T10:55:31;17.00;63.40
9425;DHT22;17139;52.140;11.636;2022-10-16T10:58:15;16.90;63.50
9425;DHT22;17139;52.140;11.636;2022-10-16T11:00:53;16.80;63.60
9425;DHT22;17139;52.140;11.636;2022-10-16T11:03:35;17.00;62.70
9425;DHT22;17139;52.140;11.636;2022-10-16T11:06:10;16.90;63.10
9425;DHT22;17139;52.140;11.636;2022-10-16T11:08:42;16.90;63.40
9425;DHT22;17139;52.140;11.636;2022-10-16T11:11:14;17.00;63.40
9425;DHT22;17139;52.140;11.636;2022-10-16T11:13:50;17.10;63.30
9425;DHT22;17139;52.140;11.636;2022-10-16T11:16:22;17.20;63.20
9425;DHT22;17139;52.140;11.636;2022-10-16T11:18:56;17.20;63.00
9425;DHT22;17139;52.140;11.636;2022-10-16T11:21:30;17.20;62.90
9425;DHT22;17139;52.140;11.636;2022-10-16T11:24:06;17.30;62.80
9425;DHT22;17139;52.140;11.636;2022-10-16T11:26:47;17.80;60.80
9425;DHT22;17139;52.140;11.636;2022-10-16T11:29:19;17.70;61.60
9425;DHT22;17139;52.140;11.636;2022-10-16T11:31:50;17.80;60.50
9425;DHT22;17139;52.140;11.636;2022-10-16T11:34:26;17.80;61.40
9425;DHT22;17139;52.140;11.636;2022-10-16T11:37:01;17.70;61.80
9425;DHT22;17139;52.140;11.636;2022-10-16T11:39:30;17.70;61.80
9425;DHT22;17139;52.140;11.636;2022-10-16T11:42:02;17.70;62.20
9425;DHT22;17139;52.140;11.636;2022-10-16T11:44:40;17.70;62.30
9425;DHT22;17139;52.140;11.636;2022-10-16T11:47:19;17.70;62.20
9425;DHT22;17139;52.140;11.636;2022-10-16T11:49:47;17.70;62.20
9425;DHT22;17139;52.140;11.636;2022-10-16T11:52:22;17.60;62.30
9425;DHT22;17139;52.140;11.636;2022-10-16T11:54:54;17.60;62.60
9425;DHT22;17139;52.140;11.636;2022-10-16T11:57:25;18.20;58.60
9425;DHT22;17139;52.140;11.636;2022-10-16T11:59:57;17.90;60.20
9425;DHT22;17139;52.140;11.636;2022-10-16T12:02:38;18.20;58.60
9425;DHT22;17139;52.140;11.636;2022-10-16T12:05:18;17.90;60.10
9425;DHT22;17139;52.140;11.636;2022-10-16T12:07:53;17.80;61.00
9425;DHT22;17139;52.140;11.636;2022-10-16T12:10:26;17.80;61.30
9425;DHT22;17139;52.140;11.636;2022-10-16T12:12:53;17.90;61.50
9425;DHT22;17139;52.140;11.636;2022-10-16T12:15:24;18.00;61.50
9425;DHT22;17139;52.140;11.636;2022-10-16T12:17:52;18.10;61.30
9425;DHT22;17139;52.140;11.636;2022-10-16T12:20:22;18.80;58.10
9425;DHT22;17139;52.140;11.636;2022-10-16T12:22:54;19.20;57.10
9425;DHT22;17139;52.140;11.636;2022-10-16T12:25:24;18.90;58.80
9425;DHT22;17139;52.140;11.636;2022-10-16T12:28:01;19.00;58.10
9425;DHT22;17139;52.140;11.636;2022-10-16T12:30:31;18.90;59.20
9425;DHT22;17139;52.140;11.636;2022-10-16T12:33:00;18.80;59.60
9425;DHT22;17139;52.140;11.636;2022-10-16T12:35:30;18.80;60.00
9425;DHT22;17139;52.140;11.636;2022-10-16T12:38:15;18.70;60.20
9425;DHT22;17139;52.140;11.636;2022-10-16T12:40:43;18.70;60.40
9425;DHT22;17139;52.140;11.636;2022-10-16T12:43:13;18.60;60.50
9425;DHT22;17139;52.140;11.636;2022-10-16T12:45:59;18.60;60.80
9425;DHT22;17139;52.140;11.636;2022-10-16T12:48:26;18.50;60.60
9425;DHT22;17139;52.140;11.636;2022-10-16T12:50:54;18.50;59.80
9425;DHT22;17139;52.140;11.636;2022-10-16T12:53:23;18.50;60.60
9425;DHT22;17139;52.140;11.636;2022-10-16T12:56:04;18.70;59.00
9425;DHT22;17139;52.140;11.636;2022-10-16T12:58:55;18.60;59.80
9425;DHT22;17139;52.140;11.636;2022-10-16T13:01:48;18.60;60.20
9425;DHT22;17139;52.140;11.636;2022-10-16T13:04:34;18.60;60.50
9425;DHT22;17139;52.140;11.636;2022-10-16T13:07:28;18.50;60.70
9425;DHT22;17139;52.140;11.636;2022-10-16T13:10:08;18.60;60.80
9425;DHT22;17139;52.140;11.636;2022-10-16T13:15:51;18.50;60.70
9425;DHT22;17139;52.140;11.636;2022-10-16T13:18:27;18.50;60.70
9425;DHT22;17139;52.140;11.636;2022-10-16T13:21:05;18.50;60.80
9425;DHT22;17139;52.140;11.636;2022-10-16T13:23:39;19.00;57.30
9425;DHT22;17139;52.140;11.636;2022-10-16T13:26:17;18.80;58.80
9425;DHT22;17139;52.140;11.636;2022-10-16T13:28:46;18.70;59.40
9425;DHT22;17139;52.140;11.636;2022-10-16T13:31:17;18.50;59.90
9425;DHT22;17139;52.140;11.636;2022-10-16T13:33:47;18.50;60.00
9425;DHT22;17139;52.140;11.636;2022-10-16T13:36:20;18.50;60.10
9425;DHT22;17139;52.140;11.636;2022-10-16T13:38:47;18.50;60.10
9425;DHT22;17139;52.140;11.636;2022-10-16T13:41:17;18.40;59.90
9425;DHT22;17139;52.140;11.636;2022-10-16T13:43:47;19.10;55.80
9425;DHT22;17139;52.140;11.636;2022-10-16T13:46:18;18.80;57.90
9425;DHT22;17139;52.140;11.636;2022-10-16T13:48:56;19.30;54.20
9425;DHT22;17139;52.140;11.636;2022-10-16T13:51:24;19.00;56.80
9425;DHT22;17139;52.140;11.636;2022-10-16T13:53:51;18.80;57.90
9425;DHT22;17139;52.140;11.636;2022-10-16T13:56:21;18.60;58.50
9425;DHT22;17139;52.140;11.636;2022-10-16T13:58:58;18.60;58.90
9425;DHT22;17139;52.140;11.636;2022-10-16T14:01:28;18.50;59.00
9425;DHT22;17139;52.140;11.636;2022-10-16T14:04:01;18.50;59.30
9425;DHT22;17139;52.140;11.636;2022-10-16T14:06:29;18.50;59.00
9425;DHT22;17139;52.140;11.636;2022-10-16T14:08:59;18.60;57.30
9425;DHT22;17139;52.140;11.636;2022-10-16T14:11:28;18.60;58.20
9425;DHT22;17139;52.140;11.636;2022-10-16T14:13:56;18.80;56.10
9425;DHT22;17139;52.140;11.636;2022-10-16T14:16:26;18.70;57.60
9425;DHT22;17139;52.140;11.636;2022-10-16T14:18:58;18.60;58.30
9425;DHT22;17139;52.140;11.636;2022-10-16T14:21:26;18.50;58.80
9425;DHT22;17139;52.140;11.636;2022-10-16T14:23:54;18.40;58.80
9425;DHT22;17139;52.140;11.636;2022-10-16T14:26:23;18.30;58.90
9425;DHT22;17139;52.140;11.636;2022-10-16T14:29:09;18.30;59.20
9425;DHT22;17139;52.140;11.636;2022-10-16T14:31:37;18.30;59.20
9425;DHT22;17139;52.140;11.636;2022-10-16T14:36:47;18.10;59.40
9425;DHT22;17139;52.140;11.636;2022-10-16T14:39:18;18.90;55.70
9425;DHT22;17139;52.140;11.636;2022-10-16T14:41:50;18.70;57.20
9425;DHT22;17139;52.140;11.636;2022-10-16T14:44:20;19.10;54.40
9425;DHT22;17139;52.140;11.636;2022-10-16T14:46:49;18.80;56.40
9425;DHT22;17139;52.140;11.636;2022-10-16T14:49:19;18.50;57.40
9425;DHT22;17139;52.140;11.636;2022-10-16T14:51:48;18.40;58.00
9425;DHT22;17139;52.140;11.636;2022-10-16T14:54:16;18.20;58.30
9425;DHT22;17139;52.140;11.636;2022-10-16T14:56:46;18.20;58.60
9425;DHT22;17139;52.140;11.636;2022-10-16T14:59:19;18.10;58.50
9425;DHT22;17139;52.140;11.636;2022-10-16T15:01:48;18.00;58.70
9425;DHT22;17139;52.140;11.636;2022-10-16T15:04:15;17.90;58.80
9425;DHT22;17139;52.140;11.636;2022-10-16T15:06:43;17.90;58.90
9425;DHT22;17139;52.140;11.636;2022-10-16T15:09:10;17.90;59.00
9425;DHT22;17139;52.140;11.636;2022-10-16T15:11:37;18.00;58.20
9425;DHT22;17139;52.140;11.636;2022-10-16T15:14:05;17.90;58.30
9425;DHT22;17139;52.140;11.636;2022-10-16T15:16:33;17.80;58.70
9425;DHT22;17139;52.140;11.636;2022-10-16T15:19:00;17.80;58.80
9425;DHT22;17139;52.140;11.636;2022-10-16T15:21:29;17.80;59.60
9425;DHT22;17139;52.140;11.636;2022-10-16T15:23:57;17.70;59.00
9425;DHT22;17139;52.140;11.636;2022-10-16T15:26:25;17.60;59.00
9425;DHT22;17139;52.140;11.636;2022-10-16T15:28:52;17.60;59.70
9425;DHT22;17139;52.140;11.636;2022-10-16T15:31:20;17.60;59.20
9425;DHT22;17139;52.140;11.636;2022-10-16T15:33:51;17.50;59.30
9425;DHT22;17139;52.140;11.636;2022-10-16T15:36:25;17.70;57.50
9425;DHT22;17139;52.140;11.636;2022-10-16T15:38:52;17.60;58.40
9425;DHT22;17139;52.140;11.636;2022-10-16T15:41:20;18.00;56.00
9425;DHT22;17139;52.140;11.636;2022-10-16T15:43:48;18.00;55.90
9425;DHT22;17139;52.140;11.636;2022-10-16T15:46:18;18.30;54.50
9425;DHT22;17139;52.140;11.636;2022-10-16T15:48:45;18.40;54.00
9425;DHT22;17139;52.140;11.636;2022-10-16T15:51:14;17.90;56.00
9425;DHT22;17139;52.140;11.636;2022-10-16T15:53:41;17.60;57.80
9425;DHT22;17139;52.140;11.636;2022-10-16T15:56:10;17.70;56.60